Time;durP1;ratioP1;P1;durP2;ratioP2;P2;SDS_P1;SDS_P2;PMS_P1;PMS_P2;Temp;Humidity;BMP_temperature;BMP_pressure;BME280_temperature;BME280_humidity;BME280_pressure;Samples;Min_cycle;Max_cycle;Signal;HPM_P1;HPM_P2
2024/01/11 00:00:08;;;;;;;1.00;1.00;;;;;;;-6.72;74.92;101002.66;5054111;28;20031;-76
2024/01/11 00:02:39;;;;;;;1.85;1.75;;;;;;;-6.75;75.03;100997.44;5053563;28;20197;-76
2024/01/11 00:05:09;;;;;;;7.18;6.45;;;;;;;-6.79;74.98;100998.78;5035415;28;20049;-76
2024/01/11 00:07:38;;;;;;;6.63;4.80;;;;;;;-6.79;74.97;100995.44;5053646;28;20072;-75
2024/01/11 00:10:08;;;;;;;6.90;4.32;;;;;;;-6.87;75.15;100978.25;5055073;28;20041;-75
2024/01/11 00:12:37;;;;;;;5.38;3.78;;;;;;;-6.77;75.14;100991.47;5058178;28;20041;-76
2024/01/11 00:15:06;;;;;;;1.05;1.05;;;;;;;-6.81;75.29;100997.75;5057256;28;20411;-76
2024/01/11 00:17:35;;;;;;;1.35;1.27;;;;;;;-6.81;75.37;100996.16;5057083;28;20064;-75
2024/01/11 00:20:07;;;;;;;0.90;0.90;;;;;;;-6.71;75.33;100994.47;5057457;28;20098;-75
2024/01/11 00:22:36;;;;;;;4.82;3.03;;;;;;;-6.68;75.33;100989.78;5057839;28;20041;-76
2024/01/11 00:25:06;;;;;;;1.23;1.13;;;;;;;-6.63;75.10;100991.06;5056003;28;20503;-76
2024/01/11 00:27:35;;;;;;;2.92;2.67;;;;;;;-6.61;75.27;100989.56;5056352;28;20073;-75
2024/01/11 00:30:06;;;;;;;2.10;1.95;;;;;;;-6.58;75.24;100987.38;5056248;28;20045;-76
2024/01/11 00:32:35;;;;;;;3.30;3.10;;;;;;;-6.57;75.18;100984.13;5057317;28;20047;-76
2024/01/11 00:35:07;;;;;;;0.80;0.77;;;;;;;-6.54;75.41;100984.41;5057570;28;20517;-76
2024/01/11 00:37:36;;;;;;;2.40;2.25;;;;;;;-6.54;75.07;100984.41;5058003;28;20047;-78
2024/01/11 00:40:06;;;;;;;1.55;1.45;;;;;;;-6.51;75.31;100979.72;5072835;28;20045;-79
2024/01/11 00:42:36;;;;;;;2.05;1.70;;;;;;;-6.38;75.37;100978.41;5057206;28;20079;-79
2024/01/11 00:45:05;;;;;;;;;;;;;;;-6.39;75.11;100986.63;5057763;28;20042;-78
2024/01/11 00:47:34;;;;;;;0.63;0.63;;;;;;;-6.42;74.78;100975.53;5056810;28;19921;-78
2024/01/11 00:50:03;;;;;;;7.85;5.78;;;;;;;-6.47;74.81;100976.75;5039237;28;20118;-79
2024/01/11 00:52:33;;;;;;;0.80;0.80;;;;;;;-6.49;74.81;100978.22;5056915;28;20071;-78
2024/01/11 00:55:03;;;;;;;1.38;1.30;;;;;;;-6.50;74.71;100981.47;5057052;28;20057;-79
2024/01/11 00:57:32;;;;;;;10.55;6.88;;;;;;;-6.54;74.94;100981.91;5056556;28;20044;-79
2024/01/11 01:00:01;;;;;;;;;;;;;;;-6.56;74.66;100976.84;5056874;28;20056;-79
2024/01/11 01:02:29;;;;;;;29.95;2.45;;;;;;;-6.58;74.98;100975.84;5057092;28;19952;-79
2024/01/11 01:05:00;;;;;;;0.40;0.40;;;;;;;-6.61;74.88;100972.19;5038240;28;20076;-79
2024/01/11 01:07:29;;;;;;;2.05;1.95;;;;;;;-6.60;74.70;100969.00;5055723;28;20041;-79
2024/01/11 01:09:59;;;;;;;1.02;1.02;;;;;;;-6.58;74.73;100972.47;5055872;28;20040;-79
2024/01/11 01:12:28;;;;;;;2.42;2.25;;;;;;;-6.59;74.91;100960.78;5059212;28;20510;-79
2024/01/11 01:14:57;;;;;;;2.40;2.30;;;;;;;-6.51;74.83;100967.31;5058800;28;20051;-79
2024/01/11 01:17:28;;;;;;;0.60;0.60;;;;;;;-6.44;74.84;100972.94;5025297;28;20056;-78
2024/01/11 01:19:57;;;;;;;1.65;1.55;;;;;;;-6.33;74.46;100971.34;5040422;28;20048;-79
2024/01/11 01:22:26;;;;;;;1.23;1.17;;;;;;;-6.33;74.58;100966.38;5057059;28;20045;-79
2024/01/11 01:24:56;;;;;;;0.65;0.65;;;;;;;-6.37;74.49;100959.44;5058609;28;20123;-79
2024/01/11 01:27:28;;;;;;;1.55;1.45;;;;;;;-6.47;74.44;100959.38;5057092;28;20434;-78
2024/01/11 01:29:57;;;;;;;3.05;2.85;;;;;;;-6.46;74.39;100958.66;5072390;28;20499;-78
2024/01/11 01:32:25;;;;;;;1.17;1.10;;;;;;;-6.56;74.46;100951.13;5056790;28;20037;-78
2024/01/11 01:34:55;;;;;;;0.60;0.60;;;;;;;-6.54;74.24;100949.66;5056710;28;20045;-78
2024/01/11 01:37:24;;;;;;;0.63;0.63;;;;;;;-6.61;74.32;100957.31;5055837;28;20033;-78
2024/01/11 01:39:52;;;;;;;1.15;1.15;;;;;;;-6.77;73.92;100954.25;5073349;28;20060;-78
2024/01/11 01:42:21;;;;;;;15.63;5.80;;;;;;;-6.81;74.22;100949.00;5040007;28;20049;-78
2024/01/11 01:44:52;;;;;;;0.50;0.50;;;;;;;-6.86;74.34;100952.69;5057606;28;20526;-78
2024/01/11 01:47:21;;;;;;;2.33;2.17;;;;;;;-6.82;74.19;100957.22;5056624;28;20384;-78
2024/01/11 01:49:51;;;;;;;1.10;1.05;;;;;;;-6.98;74.17;100949.13;5055019;28;20041;-78
2024/01/11 01:52:21;;;;;;;3.25;2.70;;;;;;;-7.07;74.29;100953.28;5054986;28;20051;-78
2024/01/11 01:54:51;;;;;;;0.60;0.60;;;;;;;-7.19;74.00;100916.63;5054803;28;20525;-78
2024/01/11 01:57:21;;;;;;;1.65;1.55;;;;;;;-7.11;74.25;100931.44;5054518;28;20040;-78
2024/01/11 01:59:53;;;;;;;0.43;0.43;;;;;;;-7.03;74.23;100940.41;5054767;28;20041;-79
2024/01/11 02:02:23;;;;;;;0.80;0.80;;;;;;;-7.02;74.28;100939.69;5054680;28;20406;-77
2024/01/11 02:04:53;;;;;;;1.45;1.35;;;;;;;-7.12;74.10;100934.66;5005750;28;1377547;-76
2024/01/11 02:07:22;;;;;;;0.70;0.70;;;;;;;-7.33;73.89;100917.88;5055412;28;20542;-75
2024/01/11 02:09:51;;;;;;;0.80;0.80;;;;;;;-7.31;74.19;100941.19;5071057;28;20492;-74
2024/01/11 02:12:20;;;;;;;;;;;;;;;-7.33;74.81;100941.78;5055585;28;20045;-76
2024/01/11 02:14:49;;;;;;;0.50;0.50;;;;;;;-7.35;74.67;100930.88;5055646;28;19924;-75
2024/01/11 02:17:19;;;;;;;2.67;2.58;;;;;;;-7.42;74.38;100924.50;5055307;28;20041;-77
2024/01/11 02:19:48;;;;;;;1.58;1.48;;;;;;;-7.54;74.86;100915.97;5055119;28;20056;-78
2024/01/11 02:22:24;;;;;;;0.50;0.50;;;;;;;-7.47;74.74;100912.44;5055181;28;20040;-77
2024/01/11 02:24:54;;;;;;;0.82;0.82;;;;;;;-7.50;74.74;100903.13;5055411;28;20053;-77
2024/01/11 02:27:23;;;;;;;5.93;2.25;;;;;;;-7.51;74.72;100898.91;5054935;28;20059;-74
2024/01/11 02:29:52;;;;;;;4.10;2.90;;;;;;;-7.51;75.12;100896.44;5055175;28;20047;-78
2024/01/11 02:32:21;;;;;;;0.95;0.95;;;;;;;-7.54;75.25;100888.72;5052775;28;20459;-77
2024/01/11 02:34:50;;;;;;;;;;;;;;;-7.60;74.83;100880.72;5071027;28;20045;-77
2024/01/11 02:37:19;;;;;;;;;;;;;;;-7.59;75.32;100880.88;5055228;28;20434;-77
2024/01/11 02:39:48;;;;;;;2.50;2.33;;;;;;;-7.61;75.14;100874.03;5054639;28;19920;-77
2024/01/11 02:42:19;;;;;;;2.33;2.13;;;;;;;-7.61;75.29;100877.41;5070456;28;20044;-77
2024/01/11 02:44:49;;;;;;;0.80;0.80;;;;;;;-7.51;75.45;100882.41;5054916;28;20049;-79
2024/01/11 02:47:17;;;;;;;2.20;2.00;;;;;;;-7.47;75.68;100886.03;5037256;28;20111;-79
2024/01/11 02:49:46;;;;;;;1.60;1.50;;;;;;;-7.51;75.25;100889.00;5054771;28;20079;-79
2024/01/11 02:52:17;;;;;;;17.95;3.90;;;;;;;-7.56;75.30;100887.72;5053488;28;20075;-79
2024/01/11 02:54:46;;;;;;;9.02;4.13;;;;;;;-7.59;75.39;100882.47;5054749;28;20045;-79
2024/01/11 02:57:16;;;;;;;1.77;1.67;;;;;;;-7.50;75.47;100883.28;5070334;28;20126;-79
2024/01/11 02:59:46;;;;;;;;;;;;;;;-7.38;75.52;100876.94;5054786;28;20133;-79
2024/01/11 03:02:15;;;;;;;0.55;0.55;;;;;;;-7.33;75.25;100872.38;5054696;28;19955;-79
2024/01/11 03:04:44;;;;;;;0.50;0.50;;;;;;;-7.29;75.57;100867.81;5054241;28;20045;-79
2024/01/11 03:07:13;;;;;;;2.78;2.53;;;;;;;-7.27;75.30;100863.88;5054434;28;20044;-79
2024/01/11 03:09:42;;;;;;;0.50;0.50;;;;;;;-7.28;75.51;100862.16;5036510;28;20045;-78
2024/01/11 03:12:11;;;;;;;1.73;1.63;;;;;;;-7.21;75.45;100859.47;5070128;28;20056;-78
2024/01/11 03:14:40;;;;;;;2.35;2.15;;;;;;;-7.24;75.27;100858.31;5069724;28;20048;-78
2024/01/11 03:17:11;;;;;;;0.75;0.75;;;;;;;-7.27;75.38;100848.16;5054932;28;20114;-78
2024/01/11 03:19:41;;;;;;;0.70;0.70;;;;;;;-7.32;75.27;100847.75;5054676;28;20572;-78
2024/01/11 03:22:13;;;;;;;1.90;1.77;;;;;;;-7.34;75.23;100831.00;5054403;28;20484;-78
2024/01/11 03:24:43;;;;;;;0.98;0.95;;;;;;;-7.41;75.34;100818.81;5054391;28;20094;-78
2024/01/11 03:27:11;;;;;;;0.55;0.55;;;;;;;-7.36;75.22;100830.84;5054328;28;20049;-79
2024/01/11 03:29:40;;;;;;;1.92;1.83;;;;;;;-7.32;75.31;100825.44;5053810;28;20491;-78
2024/01/11 03:32:13;;;;;;;0.50;0.50;;;;;;;-7.56;75.15;100803.47;5056982;28;20028;-78
2024/01/11 03:34:43;;;;;;;0.90;0.90;;;;;;;-7.43;75.23;100826.09;5056231;28;20041;-78
2024/01/11 03:37:12;;;;;;;3.67;2.25;;;;;;;-7.50;75.12;100831.25;5038934;28;20044;-78
2024/01/11 03:39:41;;;;;;;2.53;2.28;;;;;;;-7.58;75.39;100824.72;5056522;28;20068;-78
2024/01/11 03:42:10;;;;;;;1.05;1.05;;;;;;;-7.58;75.07;100820.66;5055864;28;20407;-78
2024/01/11 03:44:39;;;;;;;0.70;0.70;;;;;;;-7.56;75.25;100838.16;5054826;28;20053;-78
2024/01/11 03:47:08;;;;;;;0.70;0.70;;;;;;;-7.52;74.98;100835.19;5038214;28;20037;-78
2024/01/11 03:49:40;;;;;;;;;;;;;;;-7.43;75.21;100840.09;5056512;28;20041;-78
2024/01/11 03:52:10;;;;;;;8.20;5.05;;;;;;;-7.42;75.22;100847.66;5056656;28;19986;-78
2024/01/11 03:54:38;;;;;;;0.70;0.70;;;;;;;-7.41;74.94;100849.41;5038319;28;20057;-78
2024/01/11 03:57:08;;;;;;;1.63;1.52;;;;;;;-7.42;75.03;100837.75;5057340;28;20090;-78
2024/01/11 03:59:37;;;;;;;1.02;1.02;;;;;;;-7.68;75.12;100785.03;4973895;28;20060;-78
2024/01/11 04:02:07;;;;;;;3.08;2.83;;;;;;;-7.33;75.27;100843.50;5055595;28;20442;-78
2024/01/11 04:04:36;;;;;;;0.75;0.73;;;;;;;-7.30;75.16;100843.78;5038637;28;20567;-78
2024/01/11 04:07:07;;;;;;;2.05;1.95;;;;;;;-7.25;75.07;100842.59;5055561;28;20395;-78
2024/01/11 04:09:39;;;;;;;3.08;2.88;;;;;;;-7.28;74.95;100836.47;5054570;28;20492;-77
2024/01/11 04:12:08;;;;;;;3.78;3.42;;;;;;;-7.35;75.00;100822.69;5038856;28;20048;-78
2024/01/11 04:14:41;;;;;;;0.50;0.50;;;;;;;-7.30;75.00;100838.84;5022911;28;20045;-78
2024/01/11 04:17:10;;;;;;;0.52;0.52;;;;;;;-7.36;75.11;100823.41;5022612;28;20147;-78
2024/01/11 04:19:41;;;;;;;2.05;1.95;;;;;;;-7.35;74.91;100827.63;5055884;28;20049;-78
2024/01/11 04:22:11;;;;;;;2.05;1.85;;;;;;;-7.42;75.07;100817.94;5055864;28;20041;-78
2024/01/11 04:24:44;;;;;;;1.85;1.75;;;;;;;-7.44;75.11;100819.41;5056044;28;20407;-78
2024/01/11 04:27:14;;;;;;;3.15;2.95;;;;;;;-7.40;75.15;100827.97;5055023;28;20048;-78
2024/01/11 04:29:43;;;;;;;2.80;2.60;;;;;;;-7.39;75.11;100838.03;5054772;28;20522;-78
2024/01/11 04:32:12;;;;;;;1.48;1.38;;;;;;;-7.45;74.88;100837.47;5056261;28;20506;-78
2024/01/11 04:34:41;;;;;;;2.88;2.60;;;;;;;-7.50;75.08;100823.81;5053582;28;20045;-78
2024/01/11 04:37:11;;;;;;;4.07;3.67;;;;;;;-7.54;74.98;100816.84;5054103;28;20095;-78
2024/01/11 04:39:40;;;;;;;1.42;1.15;;;;;;;-7.86;74.90;100756.16;5054235;28;20064;-80
2024/01/11 04:42:09;;;;;;;4.00;3.65;;;;;;;-7.47;75.25;100816.66;5054554;28;20395;-79
2024/01/11 04:44:38;;;;;;;1.13;1.05;;;;;;;-7.57;74.94;100801.72;5056328;28;20468;-79
2024/01/11 04:47:08;;;;;;;2.88;2.63;;;;;;;-7.51;75.05;100822.09;5071350;28;20437;-78
2024/01/11 04:49:37;;;;;;;4.68;4.25;;;;;;;-7.53;75.06;100803.72;5054098;28;20066;-78
2024/01/11 04:52:08;;;;;;;4.13;3.80;;;;;;;-7.52;75.12;100807.94;5054272;28;20124;-78
2024/01/11 04:54:38;;;;;;;0.80;0.80;;;;;;;-7.52;74.99;100812.91;5055913;28;20056;-79
2024/01/11 04:57:09;;;;;;;4.32;3.90;;;;;;;-7.48;75.23;100812.41;5073867;28;20048;-79
2024/01/11 04:59:38;;;;;;;3.55;3.22;;;;;;;-7.41;75.17;100812.22;5059444;28;20041;-78
2024/01/11 05:02:07;;;;;;;1.70;1.60;;;;;;;-7.42;75.14;100817.94;5059765;28;20041;-79
2024/01/11 05:04:36;;;;;;;0.75;0.75;;;;;;;-7.41;75.20;100824.59;5059565;28;20057;-79
2024/01/11 05:07:05;;;;;;;0.95;0.95;;;;;;;-7.64;75.16;100792.88;5062230;28;20048;-78
2024/01/11 05:09:34;;;;;;;0.52;0.52;;;;;;;-7.39;75.29;100827.25;5060274;28;20046;-78
2024/01/11 05:12:06;;;;;;;0.95;0.95;;;;;;;-7.43;75.15;100816.19;5010877;28;20064;-79
2024/01/11 05:14:35;;;;;;;0.60;0.60;;;;;;;-7.43;75.11;100820.25;5058585;28;20546;-79
2024/01/11 05:17:04;;;;;;;;;;;;;;;-7.39;75.53;100813.25;5061022;28;20037;-79
2024/01/11 05:19:33;;;;;;;0.55;0.55;;;;;;;-7.40;75.32;100808.13;5058344;28;19921;-79
2024/01/11 05:22:04;;;;;;;1.45;1.38;;;;;;;-7.38;75.55;100805.06;5060597;28;20068;-79
2024/01/11 05:24:33;;;;;;;0.60;0.60;;;;;;;-7.34;75.27;100807.06;5060619;28;20040;-79
2024/01/11 05:27:02;;;;;;;;;;;;;;;-7.38;75.02;100814.97;5044159;28;20041;-78
2024/01/11 05:29:32;;;;;;;0.40;0.40;;;;;;;-7.45;75.11;100805.25;5059888;28;19920;-78
2024/01/11 05:32:01;;;;;;;0.82;0.82;;;;;;;-8.20;74.89;100687.94;5060219;28;20368;-78
2024/01/11 05:34:31;;;;;;;1.25;1.23;;;;;;;-7.46;75.25;100818.38;5059896;28;20037;-79
2024/01/11 05:37:00;;;;;;;4.40;3.08;;;;;;;-7.39;75.15;100813.25;5058844;28;20045;-79
2024/01/11 05:39:29;;;;;;;1.10;1.10;;;;;;;-7.42;74.98;100822.00;5056504;28;20040;-79
2024/01/11 05:41:58;;;;;;;4.85;4.22;;;;;;;-7.50;75.04;100801.50;5054702;28;20041;-79
2024/01/11 05:44:27;;;;;;;2.40;2.30;;;;;;;-7.84;74.93;100744.78;5038805;28;20391;-78
2024/01/11 05:46:57;;;;;;;2.47;2.38;;;;;;;-7.57;75.18;100804.19;5058414;28;20515;-78
2024/01/11 05:49:26;;;;;;;1.73;1.17;;;;;;;-7.58;75.26;100804.91;5054835;28;20098;-80
2024/01/11 05:51:55;;;;;;;5.05;4.00;;;;;;;-7.50;75.02;100812.28;5038289;28;20041;-80
2024/01/11 05:54:25;;;;;;;8.05;4.65;;;;;;;-7.50;75.09;100802.38;5056219;28;20064;-80
2024/01/11 05:56:57;;;;;;;1.33;1.23;;;;;;;-7.54;75.22;100800.38;5055635;28;20491;-79
2024/01/11 05:59:27;;;;;;;2.67;2.58;;;;;;;-7.56;75.25;100809.25;5056141;28;20045;-79
2024/01/11 06:02:00;;;;;;;27.05;2.90;;;;;;;-7.53;75.46;100811.13;5038553;28;20064;-80
2024/01/11 06:04:29;;;;;;;1.00;0.98;;;;;;;-7.53;75.47;100809.53;5055901;28;20056;-79
2024/01/11 06:06:59;;;;;;;1.48;1.40;;;;;;;-7.51;75.59;100807.22;5058689;28;20036;-79
2024/01/11 06:09:28;;;;;;;1.58;1.48;;;;;;;-7.55;75.29;100815.09;5058306;28;20068;-79
2024/01/11 06:11:56;;;;;;;2.08;1.88;;;;;;;-7.78;75.41;100765.16;5057001;28;20507;-79
2024/01/11 06:14:26;;;;;;;;;;;;;;;-7.46;75.51;100815.91;5041248;28;20049;-80
2024/01/11 06:16:55;;;;;;;0.50;0.50;;;;;;;-7.44;75.34;100814.44;5039910;28;19921;-80
2024/01/11 06:19:25;;;;;;;2.05;1.95;;;;;;;-7.37;75.60;100819.22;5040606;28;20049;-80
2024/01/11 06:21:56;;;;;;;4.25;3.92;;;;;;;-7.38;75.49;100809.13;5058066;28;20049;-80
2024/01/11 06:24:25;;;;;;;;;;;;;;;-7.39;75.69;100808.28;5056542;28;20049;-79
2024/01/11 06:26:54;;;;;;;1.27;1.23;;;;;;;-7.43;75.46;100811.22;5057776;28;19974;-80
2024/01/11 06:29:23;;;;;;;4.13;3.47;;;;;;;-7.50;75.35;100799.03;5040174;28;20037;-80
2024/01/11 06:31:52;;;;;;;0.93;0.93;;;;;;;-7.51;75.66;100802.25;5058369;28;20057;-80
2024/01/11 06:34:21;;;;;;;0.88;0.88;;;;;;;-7.49;75.55;100795.81;5040628;28;20045;-80
2024/01/11 06:36:52;;;;;;;3.40;3.20;;;;;;;-7.51;75.62;100799.78;5056736;28;20041;-79
2024/01/11 06:39:21;;;;;;;0.50;0.50;;;;;;;-7.51;75.59;100792.34;5039960;28;20049;-80
2024/01/11 06:41:50;;;;;;;0.50;0.50;;;;;;;-7.61;75.78;100775.81;5039605;28;20115;-80
2024/01/11 06:44:19;;;;;;;5.20;1.85;;;;;;;-7.52;75.60;100785.63;5057123;28;20043;-80
2024/01/11 06:46:48;;;;;;;0.47;0.47;;;;;;;-7.42;75.59;100789.78;5056288;28;20083;-80
2024/01/11 06:49:16;;;;;;;5.35;4.82;;;;;;;-7.37;75.72;100801.84;5057037;28;20051;-79
2024/01/11 06:51:45;;;;;;;1.80;1.70;;;;;;;-7.64;75.27;100790.41;5056692;28;20048;-79
2024/01/11 06:54:16;;;;;;;1.73;1.63;;;;;;;-7.73;75.38;100778.81;5057386;28;20369;-80
2024/01/11 06:56:45;;;;;;;0.60;0.60;;;;;;;-7.71;75.50;100783.16;5056582;28;20076;-79
2024/01/11 06:59:14;;;;;;;1.17;1.15;;;;;;;-7.63;76.01;100778.88;5057240;28;20483;-79
2024/01/11 07:01:43;;;;;;;0.40;0.40;;;;;;;-7.28;75.98;100772.91;5055578;28;20063;-79
2024/01/11 07:04:12;;;;;;;2.65;2.53;;;;;;;-6.75;75.98;100776.59;5053073;28;20128;-79
2024/01/11 07:06:41;;;;;;;;;;;;;;;-6.43;75.89;100766.13;5054137;28;20502;-79
2024/01/11 07:09:10;;;;;;;0.80;0.80;;;;;;;-6.46;75.60;100750.09;5053911;28;19925;-79
2024/01/11 07:11:42;;;;;;;0.95;0.93;;;;;;;-6.27;75.17;100788.13;5054668;28;20048;-79
2024/01/11 07:14:11;;;;;;;2.05;1.92;;;;;;;-6.21;75.59;100793.59;5037329;28;20107;-79
2024/01/11 07:16:40;;;;;;;1.27;1.17;;;;;;;-5.95;75.11;100784.16;5054567;28;20532;-80
2024/01/11 07:19:09;;;;;;;2.05;1.75;;;;;;;-5.51;75.12;100786.09;5053855;28;20495;-79
2024/01/11 07:21:37;;;;;;;1.80;1.70;;;;;;;-4.97;74.73;100784.63;5053223;28;20052;-79
2024/01/11 07:24:07;;;;;;;3.47;3.20;;;;;;;-4.50;74.50;100788.25;5053023;28;20041;-79
2024/01/11 07:26:39;;;;;;;1.30;1.23;;;;;;;-4.38;73.54;100781.69;5053232;28;20064;-79
2024/01/11 07:29:10;;;;;;;1.25;1.23;;;;;;;-4.47;72.71;100790.97;5054222;28;20068;-80
2024/01/11 07:31:39;;;;;;;2.75;1.55;;;;;;;-4.49;72.54;100776.66;5054043;28;20041;-80
2024/01/11 07:34:08;;;;;;;1.43;1.33;;;;;;;-4.50;71.93;100775.78;5053789;28;20083;-80
2024/01/11 07:36:37;;;;;;;1.70;1.60;;;;;;;-4.53;71.33;100764.72;5054156;28;20051;-79
2024/01/11 07:39:06;;;;;;;0.52;0.52;;;;;;;-4.46;70.86;100752.00;5052752;28;20029;-79
2024/01/11 07:41:35;;;;;;;1.25;1.20;;;;;;;-4.33;71.16;100754.66;5052644;28;20047;-79
2024/01/11 07:44:07;;;;;;;2.95;2.75;;;;;;;-4.23;70.87;100743.00;5053873;28;20037;-79
2024/01/11 07:46:37;;;;;;;2.08;1.98;;;;;;;-4.20;70.81;100740.72;5053941;28;20068;-79
2024/01/11 07:49:17;;;;;;;1.00;0.98;;;;;;;-4.11;70.66;100733.94;5053937;28;20488;-79
2024/01/11 07:51:46;;;;;;;1.27;1.17;;;;;;;-4.12;70.27;100737.16;5054073;28;20139;-79
2024/01/11 07:54:17;;;;;;;0.90;0.90;;;;;;;-4.14;69.69;100718.75;5053873;28;20053;-78
2024/01/11 07:56:46;;;;;;;6.32;3.22;;;;;;;-4.23;69.27;100714.72;5053685;28;20045;-79
2024/01/11 07:59:15;;;;;;;2.58;2.38;;;;;;;-4.09;69.60;100717.47;5053632;28;20099;-78
2024/01/11 08:01:45;;;;;;;3.58;3.28;;;;;;;-4.00;69.15;100717.25;5052138;28;20121;-78
2024/01/11 08:04:14;;;;;;;0.90;0.90;;;;;;;-4.03;69.05;100716.19;5038794;28;20045;-78
2024/01/11 08:06:43;;;;;;;1.33;1.25;;;;;;;-4.09;68.91;100714.09;5058333;28;20033;-78
2024/01/11 08:09:13;;;;;;;2.15;1.50;;;;;;;-4.10;68.81;100720.69;5055984;28;20084;-78
2024/01/11 08:11:42;;;;;;;0.45;0.45;;;;;;;-4.09;68.24;100691.66;5054540;28;20484;-77
2024/01/11 08:14:18;;;;;;;1.80;1.70;;;;;;;-4.80;67.56;100574.34;5054210;28;20045;-79
2024/01/11 08:16:48;;;;;;;0.88;0.88;;;;;;;-4.18;67.67;100716.81;5036884;28;20044;-78
2024/01/11 08:19:17;;;;;;;1.48;1.40;;;;;;;-4.18;67.49;100716.81;5054021;28;20047;-78
2024/01/11 08:21:47;;;;;;;2.05;1.30;;;;;;;-4.37;67.67;100673.84;5053689;28;20069;-78
2024/01/11 08:24:17;;;;;;;0.60;0.60;;;;;;;-3.79;67.91;100717.97;5053821;28;20568;-79
2024/01/11 08:26:47;;;;;;;0.85;0.85;;;;;;;-3.76;67.48;100713.16;5053033;28;20037;-78
2024/01/11 08:29:16;;;;;;;0.70;0.70;;;;;;;-3.75;67.59;100704.94;5053485;28;20043;-78
2024/01/11 08:31:44;;;;;;;14.47;3.67;;;;;;;-3.92;67.11;100665.47;5055675;28;20052;-79
2024/01/11 08:34:14;;;;;;;0.53;0.53;;;;;;;-3.81;67.31;100692.91;5057402;28;20284;-78
2024/01/11 08:36:44;;;;;;;1.98;1.88;;;;;;;-3.74;67.71;100691.72;5055454;28;20278;-79
2024/01/11 08:39:14;;;;;;;1.30;1.20;;;;;;;-3.75;67.59;100680.00;5056034;28;20040;-78
2024/01/11 08:41:43;;;;;;;2.42;2.25;;;;;;;-3.78;67.86;100649.84;5057253;28;20041;-77
2024/01/11 08:44:12;;;;;;;0.98;0.85;;;;;;;-3.54;67.37;100661.56;5056825;28;20053;-78
2024/01/11 08:46:41;;;;;;;1.40;1.30;;;;;;;-3.35;67.44;100654.59;5072540;28;20045;-77
2024/01/11 08:49:10;;;;;;;7.07;3.60;;;;;;;-3.37;67.12;100646.16;5057061;28;20076;-77
2024/01/11 08:51:40;;;;;;;0.68;0.68;;;;;;;-3.40;67.38;100634.31;5022861;28;20394;-77
2024/01/11 08:54:11;;;;;;;2.30;2.20;;;;;;;-3.19;67.72;100632.44;5057006;28;20037;-76
2024/01/11 08:56:41;;;;;;;1.25;1.20;;;;;;;-3.02;67.39;100646.06;5056066;28;20052;-76
2024/01/11 08:59:10;;;;;;;1.98;1.77;;;;;;;-2.90;67.84;100652.75;5055753;28;20048;-76
2024/01/11 09:01:39;;;;;;;2.33;1.95;;;;;;;-2.96;67.63;100652.34;5055521;28;20041;-76
2024/01/11 09:04:17;;;;;;;3.83;3.50;;;;;;;-3.05;67.17;100656.72;5056165;28;20068;-75
2024/01/11 09:06:47;;;;;;;1.23;1.15;;;;;;;-2.99;67.26;100647.16;5056527;28;20087;-76
2024/01/11 09:09:17;;;;;;;3.10;2.90;;;;;;;-2.80;67.00;100636.75;5071970;28;20063;-75
2024/01/11 09:11:45;;;;;;;3.55;3.08;;;;;;;-2.65;67.04;100644.41;5055687;28;20037;-75
2024/01/11 09:14:14;;;;;;;1.45;1.38;;;;;;;-2.67;66.18;100645.94;5056382;28;20071;-73
2024/01/11 09:16:44;;;;;;;0.85;0.85;;;;;;;-2.64;66.69;100646.16;5022216;28;20049;-72
2024/01/11 09:19:13;;;;;;;3.10;2.85;;;;;;;-2.36;66.46;100644.69;5038782;28;20045;-72
2024/01/11 09:21:42;;;;;;;4.00;3.70;;;;;;;-2.26;66.12;100634.53;5056341;28;20037;-72
2024/01/11 09:24:13;;;;;;;3.13;2.80;;;;;;;-2.36;65.22;100649.69;5056305;28;20029;-72
2024/01/11 09:26:42;;;;;;;1.33;1.25;;;;;;;-2.39;65.16;100660.34;5056673;28;20145;-72
2024/01/11 09:29:11;;;;;;;2.05;1.88;;;;;;;-2.39;65.09;100649.50;5055196;28;20391;-72
2024/01/11 09:31:40;;;;;;;2.92;1.67;;;;;;;-2.49;64.53;100627.16;5056227;28;20033;-72
2024/01/11 09:34:09;;;;;;;1.88;1.73;;;;;;;-2.48;64.46;100628.91;5056136;28;20056;-72
2024/01/11 09:36:39;;;;;;;1.77;1.67;;;;;;;-2.27;65.15;100630.28;5071379;28;20059;-72
2024/01/11 09:39:08;;;;;;;1.67;1.58;;;;;;;-2.17;65.42;100632.63;5056059;28;20106;-72
2024/01/11 09:41:43;;;;;;;13.90;4.60;;;;;;;-2.07;65.48;100607.47;5055693;28;20086;-72
2024/01/11 09:44:12;;;;;;;1.45;1.35;;;;;;;-1.66;65.21;100620.06;5056050;28;20135;-72
2024/01/11 09:46:41;;;;;;;2.05;1.95;;;;;;;-1.51;64.64;100601.84;5055519;28;20041;-72
2024/01/11 09:49:13;;;;;;;2.22;2.05;;;;;;;-1.52;64.45;100580.09;5055628;28;20049;-71
2024/01/11 09:51:44;;;;;;;4.30;3.90;;;;;;;-1.31;63.73;100614.72;5054640;28;20051;-72
2024/01/11 09:54:15;;;;;;;2.80;2.58;;;;;;;-1.44;64.17;100601.44;5055795;28;20052;-71
2024/01/11 09:56:46;;;;;;;0.80;0.80;;;;;;;-1.09;64.49;100595.19;5055998;28;20088;-72
2024/01/11 09:59:17;;;;;;;4.30;3.50;;;;;;;-0.92;63.65;100604.59;5055907;28;20049;-72
2024/01/11 10:01:46;;;;;;;3.72;3.42;;;;;;;-0.77;63.72;100586.28;5055804;28;20033;-72
2024/01/11 10:04:16;;;;;;;3.38;3.08;;;;;;;-0.61;63.04;100594.72;5054919;28;20045;-71
2024/01/11 10:06:46;;;;;;;2.65;2.45;;;;;;;-0.69;63.16;100587.63;5055207;28;20052;-71
2024/01/11 10:09:16;;;;;;;;;;;;;;;-0.63;63.11;100587.13;5056062;28;20414;-71
2024/01/11 10:11:47;;;;;;;2.35;2.15;;;;;;;-0.84;62.66;100556.66;5055519;28;19929;-70
2024/01/11 10:14:16;;;;;;;3.25;2.97;;;;;;;-0.80;62.43;100572.75;5055490;28;20055;-71
2024/01/11 10:16:45;;;;;;;1.88;1.73;;;;;;;-0.51;62.66;100562.75;5054932;28;20530;-72
2024/01/11 10:19:16;;;;;;;1.30;1.20;;;;;;;-0.64;62.01;100504.31;5055874;28;20037;-70
2024/01/11 10:21:45;;;;;;;3.55;2.88;;;;;;;-0.21;62.05;100544.41;5055598;28;20110;-70
2024/01/11 10:24:20;;;;;;;1.20;1.10;;;;;;;-0.09;61.37;100539.19;5055175;28;20049;-71
2024/01/11 10:26:51;;;;;;;1.30;1.20;;;;;;;0.10;61.21;100526.88;5055269;28;20155;-70
2024/01/11 10:29:19;;;;;;;2.75;1.80;;;;;;;0.16;60.96;100526.34;5070821;28;20052;-70
2024/01/11 10:31:48;;;;;;;1.33;1.23;;;;;;;0.27;60.30;100543.69;5054889;28;20487;-70
2024/01/11 10:34:20;;;;;;;5.57;1.85;;;;;;;0.07;60.19;100496.63;5054710;28;20044;-70
2024/01/11 10:36:49;;;;;;;2.65;2.45;;;;;;;0.42;59.79;100536.13;5040386;28;20069;-69
2024/01/11 10:39:20;;;;;;;1.87;1.77;;;;;;;0.47;59.66;100514.63;5033453;28;20460;-70
2024/01/11 10:41:57;;;;;;;2.55;2.35;;;;;;;0.61;59.86;100521.25;5035134;28;20519;-69
2024/01/11 10:44:34;;;;;;;10.48;4.10;;;;;;;0.66;59.42;100527.38;5034840;28;20046;-69
2024/01/11 10:47:06;;;;;;;3.92;3.35;;;;;;;0.75;59.06;100537.88;5034996;28;20045;-70
2024/01/11 10:49:42;;;;;;;2.40;2.20;;;;;;;0.71;59.51;100546.06;5035054;28;20119;-70
2024/01/11 10:52:15;;;;;;;1.83;1.73;;;;;;;0.72;60.54;100532.69;5034387;28;20096;-70
2024/01/11 10:54:44;;;;;;;1.17;1.10;;;;;;;0.66;59.78;100522.34;5033769;28;20103;-70
2024/01/11 10:57:15;;;;;;;1.35;1.25;;;;;;;0.80;59.45;100523.91;5034769;28;20422;-70
2024/01/11 10:59:45;;;;;;;0.85;0.85;;;;;;;0.88;59.64;100524.31;5034345;28;20068;-70
2024/01/11 11:02:17;;;;;;;3.42;2.25;;;;;;;0.94;59.86;100524.59;5033272;28;20046;-69
2024/01/11 11:04:49;;;;;;;1.70;1.58;;;;;;;1.06;59.70;100505.13;5033942;28;20123;-70
2024/01/11 11:07:19;;;;;;;0.73;0.73;;;;;;;1.10;59.34;100510.41;5034351;28;20140;-69
2024/01/11 11:09:52;;;;;;;2.88;2.65;;;;;;;1.12;59.02;100506.31;5039391;28;20057;-68
2024/01/11 11:12:25;;;;;;;1.95;1.85;;;;;;;1.20;59.21;100500.00;5042840;28;20041;-70
2024/01/11 11:14:57;;;;;;;0.75;0.75;;;;;;;1.23;58.92;100505.19;5043025;28;20055;-70
2024/01/11 11:17:27;;;;;;;1.70;1.60;;;;;;;1.56;58.84;100507.63;5058272;28;20045;-70
2024/01/11 11:19:56;;;;;;;1.45;1.35;;;;;;;1.65;59.22;100500.50;5042850;28;20047;-70
2024/01/11 11:22:28;;;;;;;2.17;1.53;;;;;;;1.76;57.91;100499.34;5045408;28;20091;-70
2024/01/11 11:25:06;;;;;;;1.83;1.48;;;;;;;1.80;57.85;100497.03;5053877;28;20080;-70
2024/01/11 11:27:36;;;;;;;1.92;1.83;;;;;;;1.66;57.35;100477.94;5054124;28;20060;-71
2024/01/11 11:30:06;;;;;;;3.13;2.35;;;;;;;1.86;56.87;100486.41;5053709;28;20499;-70
2024/01/11 11:32:39;;;;;;;3.92;2.58;;;;;;;1.93;56.98;100493.44;5054010;28;20045;-70
2024/01/11 11:35:08;;;;;;;1.13;1.10;;;;;;;2.02;57.37;100492.22;5054249;28;20045;-70
2024/01/11 11:37:38;;;;;;;1.38;1.27;;;;;;;2.02;56.98;100488.84;5053702;28;20044;-70
2024/01/11 11:40:10;;;;;;;1.98;1.58;;;;;;;1.96;56.32;100493.59;5054185;28;20037;-69